首页
METAR-TAF:

METAR-TAF

机场 :

Najran, 沙特阿拉伯

纬度: 17-37N, 经度: 044-25E, 海拔: 1212米

当前天气观测

该预报发布于1小时和10分钟前的12:00 UTC
风速10节,风向
温度 39°C
湿度 4%
气压 1011 hPa
能见度10公里或以上
1500米以下无云,无积雨云

METAR: OENG 171200Z 36010KT CAVOK 39/M09 Q1011 NOSIG

时间: 16:10 (13:10 UTC)

预报

该预报发布于2小时和10分钟前的11:00 UTC
预报有效从17日的 12点(UTC)到 18日的 18点(UTC)
风速13节,风向北转东北
能见度10公里或以上
1500米以下无云,无积雨云
成为
从 17日的 20点(UTC)到 17日的 22点(UTC)
风速5节,风向西
成为
从 18日的 06点(UTC)到 18日的 08点(UTC)
风速10节,风向东北
能见度10公里或以上
少量云层高于4000英尺

TAF: OENG 171100Z 1712/1818 02013KT CAVOK BECMG 1720/1722 27005KT BECMG 1806/1808 05010KT 9999 FEW040

超过4000个机场的气象观测和天气预报(METAR&TAF报告)。

可查询的气象台以黄色和红色小点在地图上表示。

将鼠标移到小点上方,可查看气象台名称。

然后点击查看天气观测和预报。

如需切换地图:点击带黑十字的绿色按钮放大地图;点击带横线的绿色按钮缩小地图;或者点击绿色箭头查看邻近地区的地图。


METAR-TAF: